Garwood, Texas
Current Conditions -  °F | °C
As of 8:35 AM on Thursday 30 Oct 2014 (Local Time) from KELA Reporting Station
Scattered Clouds Scattered Clouds  
Wind Chill: 60°   Ceiling: Unl
Heat Index: 60°   Visibility: 7mi
Dew Point: 58°   Wind: 5mph
Humidity: 95%   Direction: 40°NE
Pressure: 30.12"   Gusts: NA
Location:  29.45°N, 96.4°W
Report Text: KELA 301335Z AUTO 04004KT 7SM SCT014 15/15 A3012 RMK AO2 T01540146
Loading
Personal Weather Stations






























Interactive Weather Map
Tropical Storm Tracking
New forecast layout! Learn more

10-Day Weather Forecast

Advertisements
Track Severe Weather on mobile